Time;durP1;ratioP1;P1;durP2;ratioP2;P2;SDS_P1;SDS_P2;PMS_P1;PMS_P2;Temp;Humidity;BMP_temperature;BMP_pressure;BME280_temperature;BME280_humidity;BME280_pressure;Samples;Min_cycle;Max_cycle;Signal;HPM_P1;HPM_P2
2021/01/21 00:01:55;;;;;;;5.23;2.80;;;8.50;99.90;;;;;;4904350;29;20205;-85
2021/01/21 00:04:23;;;;;;;2.77;1.83;;;8.50;99.90;;;;;;4888312;29;20216;-85
2021/01/21 00:06:51;;;;;;;3.58;1.67;;;8.50;99.90;;;;;;4889204;29;20224;-86
2021/01/21 00:09:52;;;;;;;2.10;1.90;;;8.40;99.90;;;;;;4921094;29;20228;-85
2021/01/21 00:12:31;;;;;;;2.63;1.80;;;8.40;99.90;;;;;;4904583;29;20264;-86
2021/01/21 16:14:51;;;;;;;1.20;1.10;;;7.10;99.90;;;;;;4903956;29;20254;-81
2021/01/21 16:17:20;;;;;;;3.43;1.20;;;7.10;99.90;;;;;;4895055;29;20287;-80
2021/01/21 16:19:47;;;;;;;3.30;1.10;;;7.20;99.90;;;;;;4890177;29;20227;-80
2021/01/21 16:22:14;;;;;;;1.88;0.90;;;7.20;99.90;;;;;;4906063;29;20310;-81
2021/01/21 16:24:42;;;;;;;0.95;0.95;;;7.10;99.90;;;;;;4905010;29;20223;-80
2021/01/21 16:27:09;;;;;;;0.60;0.60;;;7.10;99.90;;;;;;4905366;29;20232;-80
2021/01/21 16:29:36;;;;;;;0.73;0.70;;;7.10;99.90;;;;;;4903410;29;20227;-83
2021/01/21 16:32:04;;;;;;;1.48;0.70;;;7.00;99.90;;;;;;4921123;29;20239;-85
2021/01/21 16:34:30;;;;;;;1.37;0.80;;;7.10;99.90;;;;;;4908812;29;20722;-85
2021/01/21 16:36:58;;;;;;;1.45;1.10;;;7.10;99.90;;;;;;4909699;29;20237;-83
2021/01/21 16:39:48;;;;;;;2.13;0.77;;;7.10;99.90;;;;;;4907691;29;20227;-83
2021/01/21 16:42:51;;;;;;;0.90;0.90;;;7.00;99.90;;;;;;4923509;29;20234;-84
2021/01/21 16:45:26;;;;;;;2.00;0.88;;;6.90;99.90;;;;;;4908984;29;20235;-84
2021/01/21 16:48:00;;;;;;;1.40;1.20;;;6.90;99.90;;;;;;4910576;29;20684;-84
2021/01/21 16:50:50;;;;;;;2.00;1.77;;;6.90;99.90;;;;;;4909100;29;20219;-84
2021/01/21 16:53:18;;;;;;;0.80;0.80;;;7.00;99.90;;;;;;4926444;29;20231;-83
2021/01/21 16:55:45;;;;;;;1.87;1.03;;;7.00;99.90;;;;;;4929360;29;20228;-83
2021/01/21 16:58:11;;;;;;;1.90;1.00;;;7.00;99.90;;;;;;4925327;29;20229;-84
2021/01/21 17:00:39;;;;;;;0.83;0.80;;;7.00;99.90;;;;;;4909980;29;20220;-83
2021/01/21 17:03:15;;;;;;;2.58;0.90;;;7.00;99.90;;;;;;4915108;29;20216;-84
2021/01/21 17:05:45;;;;;;;4.00;1.30;;;7.00;99.90;;;;;;4914463;29;20248;-83
2021/01/21 17:08:15;;;;;;;1.77;1.20;;;7.00;99.90;;;;;;4892086;29;20258;-84
2021/01/21 17:10:41;;;;;;;2.10;1.15;;;7.00;99.90;;;;;;4892244;29;20232;-82
2021/01/21 17:13:09;;;;;;;3.07;0.90;;;7.00;99.90;;;;;;4890888;29;20236;-83
2021/01/21 17:15:35;;;;;;;5.00;1.50;;;7.00;99.90;;;;;;4890996;29;20224;-83
2021/01/21 17:18:02;;;;;;;1.10;0.80;;;7.10;99.90;;;;;;4906098;29;20279;-83
2021/01/21 17:20:30;;;;;;;4.60;1.40;;;7.10;99.90;;;;;;4906517;29;20230;-83
2021/01/21 17:23:02;;;;;;;3.10;1.33;;;7.00;99.90;;;;;;4922310;29;20220;-83
2021/01/21 17:25:39;;;;;;;2.73;1.33;;;7.10;99.90;;;;;;4904639;29;20224;-82
2021/01/21 17:28:06;;;;;;;1.55;1.35;;;7.00;99.90;;;;;;4903732;29;20230;-83
2021/01/21 17:30:34;;;;;;;4.20;1.30;;;7.00;99.90;;;;;;4903842;29;20265;-83
2021/01/21 17:33:01;;;;;;;2.50;1.50;;;7.00;99.90;;;;;;4903697;29;20286;-82
2021/01/21 17:35:32;;;;;;;0.97;0.80;;;7.00;99.90;;;;;;4911432;29;20316;-82
2021/01/21 17:38:02;;;;;;;2.73;1.10;;;7.10;99.90;;;;;;4900685;29;20228;-83
2021/01/21 17:40:29;;;;;;;1.50;1.27;;;7.10;99.90;;;;;;4870146;29;20205;-82
2021/01/21 17:43:17;;;;;;;2.50;1.55;;;7.00;99.90;;;;;;4886362;29;20216;-83
2021/01/21 17:45:46;;;;;;;3.10;1.00;;;6.90;99.90;;;;;;4904231;29;20307;-83
2021/01/21 17:48:13;;;;;;;2.70;1.53;;;7.10;99.90;;;;;;4888571;29;20252;-83
2021/01/21 17:51:05;;;;;;;3.27;1.90;;;7.10;99.90;;;;;;4887626;29;20248;-82
2021/01/21 17:53:40;;;;;;;3.17;1.60;;;7.00;99.90;;;;;;4869298;29;20233;-82
2021/01/21 17:56:16;;;;;;;1.70;1.20;;;7.20;99.90;;;;;;4856039;29;20225;-84
2021/01/21 17:58:57;;;;;;;3.45;0.90;;;7.00;99.90;;;;;;4886685;29;20211;-82
2021/01/21 18:01:32;;;;;;;5.17;1.40;;;7.10;99.90;;;;;;4887152;29;20213;-82
2021/01/21 18:04:00;;;;;;;1.17;1.00;;;7.00;99.90;;;;;;4902639;29;20249;-82
2021/01/21 18:06:30;;;;;;;1.85;1.40;;;7.20;99.90;;;;;;4887381;29;20204;-82
2021/01/21 18:09:10;;;;;;;1.42;1.10;;;7.20;99.90;;;;;;4918447;29;20196;-83
2021/01/21 18:11:58;;;;;;;2.50;1.50;;;7.10;99.90;;;;;;4882470;29;20248;-83
2021/01/21 18:14:25;;;;;;;3.67;1.27;;;7.20;99.90;;;;;;4891624;29;20232;-83
2021/01/21 18:16:52;;;;;;;3.72;1.58;;;7.10;99.90;;;;;;4905241;29;20311;-82
2021/01/21 18:19:23;;;;;;;4.07;1.38;;;7.10;99.90;;;;;;4889368;29;20609;-83
2021/01/21 18:21:51;;;;;;;2.00;1.13;;;7.30;99.90;;;;;;4908995;29;20236;-83
2021/01/21 18:24:21;;;;;;;1.73;0.98;;;7.30;99.90;;;;;;4909818;29;20221;-83
2021/01/21 18:26:49;;;;;;;1.60;1.00;;;7.10;99.90;;;;;;4876979;29;20328;-83
2021/01/21 18:29:16;;;;;;;1.67;1.07;;;7.30;99.90;;;;;;4891258;29;20268;-83
2021/01/21 18:31:43;;;;;;;3.30;1.40;;;7.30;99.90;;;;;;4905268;29;20243;-83
2021/01/21 18:34:18;;;;;;;3.47;1.57;;;7.40;99.90;;;;;;4890664;29;20235;-82
2021/01/21 18:36:48;;;;;;;4.05;1.58;;;7.20;99.90;;;;;;4875820;29;20224;-84
2021/01/21 18:39:16;;;;;;;2.10;1.15;;;7.40;99.90;;;;;;4926971;29;20222;-83
2021/01/21 18:41:47;;;;;;;3.90;1.73;;;7.40;99.90;;;;;;4921351;29;20212;-85
2021/01/21 18:44:14;;;;;;;4.20;1.30;;;7.40;99.90;;;;;;4875218;29;20276;-85
2021/01/21 18:46:43;;;;;;;3.33;1.25;;;7.40;99.90;;;;;;4905698;29;20232;-85
2021/01/21 18:52:27;;;;;;;3.30;1.47;;;7.40;99.90;;;;;;4822560;29;20237;-80
2021/01/21 18:55:00;;;;;;;2.60;1.33;;;7.40;99.90;;;;;;4880633;29;20274;-81
2021/01/21 18:58:07;;;;;;;2.57;1.57;;;7.40;99.90;;;;;;4888887;29;20266;-82
2021/01/21 19:00:51;;;;;;;1.20;1.10;;;7.30;99.90;;;;;;4875007;29;20231;-81
2021/01/21 19:03:32;;;;;;;2.17;1.30;;;7.50;99.90;;;;;;4887437;29;20244;-81
2021/01/21 19:10:31;;;;;;;1.05;0.95;;;7.30;99.90;;;;;;4874972;29;20200;-82
2021/01/21 19:13:09;;;;;;;2.10;1.10;;;7.50;99.90;;;;;;4910235;29;20229;-81
2021/01/21 19:22:55;;;;;;;2.33;1.30;;;7.40;99.90;;;;;;4837971;29;20222;-81
2021/01/21 19:25:43;;;;;;;1.67;1.27;;;7.50;99.90;;;;;;4887785;29;20208;-81
2021/01/21 19:28:19;;;;;;;1.85;1.20;;;7.60;99.90;;;;;;4905356;29;20216;-81
2021/01/21 19:30:46;;;;;;;6.03;1.27;;;7.60;99.90;;;;;;4872695;29;20235;-82
2021/01/21 19:33:39;;;;;;;1.87;1.67;;;7.70;99.90;;;;;;4892329;29;20252;-81
2021/01/21 19:36:07;;;;;;;3.10;1.30;;;7.70;99.90;;;;;;4905614;29;20256;-83
2021/01/21 19:38:49;;;;;;;2.20;1.17;;;7.70;99.90;;;;;;4906433;29;20216;-83
2021/01/21 19:45:52;;;;;;;2.20;1.10;;;7.80;99.90;;;;;;4904516;29;20295;-84
2021/01/21 19:48:22;;;;;;;7.77;1.60;;;7.70;99.90;;;;;;4887439;29;20235;-84
2021/01/21 19:50:52;;;;;;;3.47;1.55;;;7.90;99.90;;;;;;4905815;29;20220;-83
2021/01/21 19:53:24;;;;;;;7.15;1.85;;;7.90;99.90;;;;;;4895321;29;20232;-85
2021/01/21 19:56:23;;;;;;;4.63;1.70;;;8.00;99.90;;;;;;4905453;29;20232;-85
2021/01/21 19:58:59;;;;;;;2.63;1.27;;;7.80;99.90;;;;;;4892122;29;20212;-85
2021/01/21 20:01:53;;;;;;;2.83;1.33;;;8.00;99.90;;;;;;4891299;29;20204;-84
2021/01/21 20:04:21;;;;;;;7.80;1.60;;;8.10;99.90;;;;;;4890374;29;20212;-84
2021/01/21 20:06:53;;;;;;;3.33;1.83;;;8.10;99.90;;;;;;4874976;29;20249;-83
2021/01/21 20:09:22;;;;;;;2.92;1.60;;;8.10;99.90;;;;;;4890272;29;20711;-84
2021/01/21 20:11:54;;;;;;;4.93;1.75;;;8.10;99.90;;;;;;4905802;29;20224;-83
2021/01/21 20:14:24;;;;;;;2.65;1.35;;;8.00;99.90;;;;;;4891404;29;20227;-81
2021/01/21 20:16:55;;;;;;;4.55;1.60;;;7.90;99.90;;;;;;4910335;29;20289;-81
2021/01/21 20:19:22;;;;;;;2.87;1.47;;;7.90;99.90;;;;;;4876818;29;20269;-81
2021/01/21 20:21:49;;;;;;;4.53;1.87;;;7.90;99.90;;;;;;4876478;29;20237;-81
2021/01/21 20:24:21;;;;;;;4.60;1.40;;;7.60;99.90;;;;;;4902245;29;20208;-84
2021/01/21 20:26:48;;;;;;;4.28;1.30;;;7.60;99.90;;;;;;4905201;29;20226;-84
2021/01/21 20:29:16;;;;;;;1.70;1.20;;;7.60;99.90;;;;;;4894339;29;20244;-84
2021/01/21 20:31:44;;;;;;;1.80;1.30;;;7.50;99.90;;;;;;4874059;29;20280;-84
2021/01/21 20:34:15;;;;;;;2.08;1.40;;;7.50;99.90;;;;;;4888787;29;20319;-83
2021/01/21 20:36:42;;;;;;;8.95;2.05;;;7.40;99.90;;;;;;4927730;29;20590;-80
2021/01/21 20:39:09;;;;;;;3.97;1.80;;;7.40;99.90;;;;;;4935139;29;20216;-82
2021/01/21 20:41:37;;;;;;;4.10;2.22;;;7.40;99.90;;;;;;4923429;29;20311;-81
2021/01/21 20:44:04;;;;;;;3.33;1.53;;;7.40;99.90;;;;;;4880570;29;20222;-81
2021/01/21 20:46:31;;;;;;;3.90;1.02;;;7.40;99.90;;;;;;4905481;29;20224;-83
2021/01/21 20:48:59;;;;;;;2.73;2.10;;;7.40;99.90;;;;;;4907024;29;20240;-82
2021/01/21 20:51:29;;;;;;;3.17;1.50;;;7.40;99.90;;;;;;4892168;29;20225;-84
2021/01/21 20:53:59;;;;;;;4.73;1.63;;;7.40;99.90;;;;;;4877491;29;20241;-83
2021/01/21 20:56:27;;;;;;;5.20;2.28;;;7.20;99.90;;;;;;4917956;29;20243;-83
2021/01/21 20:58:54;;;;;;;7.00;1.95;;;7.30;99.90;;;;;;4915167;29;20224;-79
2021/01/21 21:01:21;;;;;;;7.10;1.77;;;7.30;99.90;;;;;;4912233;29;20251;-81
2021/01/21 21:03:49;;;;;;;4.25;1.55;;;7.20;99.90;;;;;;4913257;29;20236;-82
2021/01/21 21:06:19;;;;;;;3.10;1.83;;;7.10;99.90;;;;;;4896448;29;20277;-82
2021/01/21 21:08:47;;;;;;;1.50;1.40;;;7.30;99.90;;;;;;4915173;29;20566;-83
2021/01/21 21:11:14;;;;;;;4.00;1.90;;;7.30;99.90;;;;;;4901948;29;20233;-82
2021/01/21 21:13:41;;;;;;;3.08;1.42;;;7.40;99.90;;;;;;4894584;29;20300;-82
2021/01/21 21:16:08;;;;;;;4.30;1.67;;;7.30;99.90;;;;;;4885790;29;20467;-84
2021/01/21 21:18:35;;;;;;;3.65;1.63;;;7.30;99.90;;;;;;4903974;29;20236;-84
2021/01/21 21:21:02;;;;;;;9.37;2.33;;;7.30;99.90;;;;;;4904010;29;20315;-84
2021/01/21 21:23:32;;;;;;;3.65;1.98;;;7.40;99.90;;;;;;4904294;29;20228;-84
2021/01/21 21:26:00;;;;;;;2.53;1.80;;;7.40;99.90;;;;;;4904370;29;20244;-84
2021/01/21 21:28:27;;;;;;;6.67;2.17;;;7.30;99.90;;;;;;4888787;29;20236;-85
2021/01/21 21:30:53;;;;;;;5.55;2.78;;;7.30;99.90;;;;;;4919091;29;20244;-84
2021/01/21 21:33:20;;;;;;;3.50;2.10;;;7.10;99.90;;;;;;4918776;29;20240;-76
2021/01/21 21:35:47;;;;;;;6.93;2.73;;;7.30;99.90;;;;;;4895584;29;20224;-80
2021/01/21 21:38:14;;;;;;;5.97;2.37;;;7.20;99.90;;;;;;4902093;29;20220;-80
2021/01/21 21:40:41;;;;;;;3.20;2.20;;;7.20;99.90;;;;;;4918027;29;20217;-81
2021/01/21 21:43:10;;;;;;;5.27;2.67;;;7.20;99.90;;;;;;4884489;29;20232;-81
2021/01/21 21:45:38;;;;;;;4.72;1.83;;;7.20;99.90;;;;;;4900217;29;20232;-79
2021/01/21 21:48:05;;;;;;;9.47;4.93;;;7.20;99.90;;;;;;4894847;29;20221;-78
2021/01/21 21:50:32;;;;;;;3.65;2.67;;;7.20;99.90;;;;;;4896935;29;20228;-79
2021/01/21 21:52:59;;;;;;;9.25;1.75;;;7.20;99.90;;;;;;4911111;29;20325;-78
2021/01/21 21:55:26;;;;;;;3.67;2.17;;;7.20;99.90;;;;;;4881226;29;20216;-82
2021/01/21 21:57:53;;;;;;;5.32;2.00;;;7.30;99.90;;;;;;4919239;29;20208;-84
2021/01/21 22:00:21;;;;;;;3.30;2.00;;;7.20;99.90;;;;;;4905020;29;20240;-85
2021/01/21 22:02:48;;;;;;;3.50;1.90;;;7.20;99.90;;;;;;4905379;29;20228;-85
2021/01/21 22:05:17;;;;;;;3.67;2.17;;;7.30;99.90;;;;;;4904735;29;20213;-85
2021/01/21 22:07:45;;;;;;;5.03;2.38;;;7.30;99.90;;;;;;4887947;29;20295;-84
2021/01/21 22:10:14;;;;;;;2.57;2.10;;;7.30;99.90;;;;;;4903108;29;20220;-84
2021/01/21 22:12:41;;;;;;;3.97;1.95;;;7.40;99.90;;;;;;4919772;29;20240;-84
2021/01/21 22:15:10;;;;;;;4.90;2.27;;;7.40;99.90;;;;;;4900109;29;20220;-84
2021/01/21 22:17:38;;;;;;;6.40;1.77;;;7.30;99.90;;;;;;4903138;29;20255;-84
2021/01/21 22:20:09;;;;;;;3.43;1.67;;;7.40;99.90;;;;;;4919564;29;20225;-85
2021/01/21 22:22:36;;;;;;;3.20;1.37;;;7.40;99.90;;;;;;4893204;29;20207;-85
2021/01/21 22:25:04;;;;;;;2.47;1.93;;;7.50;99.90;;;;;;4921314;29;20208;-84
2021/01/21 22:27:32;;;;;;;6.57;2.00;;;7.50;99.90;;;;;;4922704;29;20223;-84
2021/01/21 22:29:58;;;;;;;4.43;1.60;;;7.50;99.90;;;;;;4938959;29;20224;-84
2021/01/21 22:32:26;;;;;;;2.45;1.70;;;7.60;99.90;;;;;;4922656;29;20219;-84
2021/01/21 22:34:54;;;;;;;1.93;1.57;;;7.60;99.90;;;;;;4922101;29;20239;-83
2021/01/21 22:37:21;;;;;;;4.40;1.60;;;7.60;99.90;;;;;;4906784;29;20235;-85
2021/01/21 22:39:48;;;;;;;2.17;1.55;;;7.60;99.90;;;;;;4921698;29;20212;-85
2021/01/21 22:42:14;;;;;;;3.23;1.83;;;7.60;99.90;;;;;;4921197;29;20235;-84
2021/01/21 22:44:41;;;;;;;2.90;1.50;;;7.70;99.90;;;;;;4903963;29;20215;-84
2021/01/21 22:47:08;;;;;;;2.00;1.77;;;7.70;99.90;;;;;;4936150;29;20224;-85
2021/01/21 22:49:35;;;;;;;2.22;1.05;;;7.80;99.90;;;;;;4920819;29;20224;-84
2021/01/21 22:52:03;;;;;;;2.70;1.40;;;7.80;99.90;;;;;;4935569;29;20219;-84
2021/01/21 22:54:30;;;;;;;4.97;1.92;;;7.80;99.90;;;;;;4919091;29;20293;-85
2021/01/21 22:56:56;;;;;;;1.88;1.55;;;7.90;99.90;;;;;;4910831;29;20717;-84
2021/01/21 22:59:23;;;;;;;2.63;1.50;;;8.00;99.90;;;;;;4904307;29;20591;-86
2021/01/21 23:01:50;;;;;;;3.15;1.48;;;8.10;99.90;;;;;;4904228;29;20830;-85
2021/01/21 23:04:17;;;;;;;2.30;1.58;;;8.10;99.90;;;;;;4904411;29;20220;-85
2021/01/21 23:06:44;;;;;;;1.73;1.30;;;8.20;99.90;;;;;;4921793;29;20236;-85
2021/01/21 23:09:12;;;;;;;3.87;1.70;;;8.30;99.90;;;;;;4920499;29;20234;-84
2021/01/21 23:11:39;;;;;;;2.30;1.33;;;8.40;99.90;;;;;;4903448;29;20225;-85
2021/01/21 23:14:07;;;;;;;1.20;1.10;;;8.50;99.90;;;;;;4903536;29;20246;-85
2021/01/21 23:16:33;;;;;;;2.47;1.77;;;8.80;99.90;;;;;;4903411;29;20259;-85
2021/01/21 23:19:00;;;;;;;1.65;1.17;;;8.80;99.90;;;;;;4889529;29;20308;-85
2021/01/21 23:21:27;;;;;;;2.70;1.30;;;8.90;99.90;;;;;;4889242;29;20622;-84
2021/01/21 23:23:54;;;;;;;1.30;1.20;;;9.00;99.90;;;;;;4904314;29;20228;-85
2021/01/21 23:26:22;;;;;;;4.15;1.55;;;9.20;99.90;;;;;;4889723;29;20290;-86
2021/01/21 23:28:49;;;;;;;1.02;0.98;;;9.30;99.90;;;;;;4908014;29;20628;-84
2021/01/21 23:31:16;;;;;;;1.80;1.10;;;9.40;99.90;;;;;;4916363;28;20199;-86
2021/01/21 23:33:43;;;;;;;1.20;1.20;;;9.60;99.90;;;;;;4891685;29;20265;-83
2021/01/21 23:36:10;;;;;;;1.00;1.00;;;9.60;99.90;;;;;;4922715;29;20577;-84
2021/01/21 23:38:37;;;;;;;1.08;1.08;;;9.80;99.90;;;;;;4924065;29;20280;-84
2021/01/21 23:41:05;;;;;;;1.00;0.97;;;9.90;99.90;;;;;;4923959;29;20602;-84
2021/01/21 23:43:33;;;;;;;0.93;0.93;;;9.90;99.90;;;;;;4925228;29;20291;-84
2021/01/21 23:46:03;;;;;;;1.52;1.40;;;9.90;99.90;;;;;;4911400;29;20228;-84
2021/01/21 23:48:31;;;;;;;1.35;1.25;;;10.00;99.90;;;;;;4894356;29;20723;-83
2021/01/21 23:50:58;;;;;;;3.13;1.67;;;10.10;99.90;;;;;;4898287;29;20204;-82
2021/01/21 23:53:24;;;;;;;1.38;1.27;;;10.00;99.90;;;;;;4899509;29;20271;-84
2021/01/21 23:55:51;;;;;;;0.70;0.70;;;10.00;99.90;;;;;;4915392;29;20247;-82
2021/01/21 23:58:18;;;;;;;0.75;0.75;;;9.90;99.90;;;;;;4883033;29;20229;-83
